Seaways Milos — V7WR8 — position and weather

sailwx.info

Track history (hours):
 
Tides and Currents Weather Stations Pressure Air Temp Water Temp Dewpoint Dewpoint Depression Visibility Wind Speed Wind Dir Waves Ship Positions

Seaways Milos

Last reported at 2018-Mar-26 17:43 UTC. Time now 2018-May-27 01:31 UTC.
Position N 09°11' W 079°52'.
Warning: this ship's position is months out of date.

Length 183 m; draft 12 m.

Type: Tanker. MMSI: 538004376.

Date/timePositionNaut miles runAvg speedWind from/ knotsBaromVisibWave heightAir tempDewpointWater temp
2018-Mar-26 17:43N 09°11' W 079°52'6 0.8
2018-Mar-26 10:04N 09°16' W 079°55'0 2.3
2018-Mar-26 10:00N 09°16' W 079°55'0 0.4
2018-Mar-26 09:30N 09°16' W 079°55'0 0.3
2018-Mar-26 09:00N 09°16' W 079°55'0 0.3
2018-Mar-26 08:29N 09°17' W 079°55'0 0.5
2018-Mar-26 08:00N 09°17' W 079°55'1 2.8
2018-Mar-26 07:30N 09°18' W 079°55'3 6.1
2018-Mar-26 07:00N 09°21' W 079°55'3 5.7
2018-Mar-26 06:30N 09°24' W 079°55'4 8.6
2018-Mar-26 06:00N 09°28' W 079°53'1 1.3
2018-Mar-26 05:30N 09°29' W 079°54'1 1.2
2018-Mar-26 05:00N 09°29' W 079°54'3 4.6
2018-Mar-26 04:25N 09°32' W 079°55'1 2.4
2018-Mar-26 03:56N 09°32' W 079°56'0 0.3
2018-Mar-26 03:30N 09°32' W 079°56'0 0.4
2018-Mar-26 02:58N 09°32' W 079°56'0 0.2
2018-Mar-26 02:30N 09°32' W 079°56'0 0.3
2018-Mar-26 01:59N 09°33' W 079°56'1 2.8
2018-Mar-26 01:30N 09°32' W 079°55'1 1.6
2018-Mar-26 00:52N 09°32' W 079°54'1 1.0
2018-Mar-26 00:16N 09°31' W 079°54'1 2.8
2018-Mar-25 23:55N 09°31' W 079°54'3 8.0
2018-Mar-25 23:30N 09°34' W 079°52'  
2018-Mar-20 23:57N 28°53' W 094°25'611.8
2018-Mar-20 23:28N 28°59' W 094°25'611.9
2018-Mar-20 22:56N 29°05' W 094°25'611.7
2018-Mar-20 22:28N 29°10' W 094°29'611.8
2018-Mar-20 21:59N 29°14' W 094°33'611.1
2018-Mar-20 21:26N 29°19' W 094°38'511.1
2018-Mar-20 20:58N 29°21' W 094°43'5 9.8
2018-Mar-20 20:30N 29°22' W 094°48'610.1
2018-Mar-20 19:57N 29°27' W 094°51'5 9.8
2018-Mar-20 19:27N 29°32' W 094°54'4 9.6
2018-Mar-20 19:01N 29°35' W 094°56'5 9.2
2018-Mar-20 18:30N 29°40' W 094°58'4 7.7
2018-Mar-20 18:00N 29°43' W 095°01'  
2018-Mar-17 04:35N 29°44' W 095°01'0 0.3
2018-Mar-17 04:28N 29°44' W 095°01'2 3.7
2018-Mar-17 04:00N 29°42' W 095°01'510.0
2018-Mar-17 03:30N 29°38' W 094°58'611.2
2018-Mar-17 03:00N 29°33' W 094°54'612.2
2018-Mar-17 02:30N 29°28' W 094°51'812.1
2018-Mar-17 01:48N 29°21' W 094°46'412.6
2018-Mar-17 01:28N 29°20' W 094°41'511.0
2018-Mar-17 01:00N 29°18' W 094°35'2 3.4
2018-Mar-17 00:30N 29°19' W 094°35'0 0.0
2018-Mar-16 23:57N 29°19' W 094°35'0 0.0
2018-Mar-16 23:30N 29°19' W 094°35'0 0.0
2018-Mar-16 23:00N 29°19' W 094°35'0 0.0
2018-Mar-16 22:27N 29°19' W 094°35'0 0.0
2018-Mar-16 21:57N 29°19' W 094°35'0 0.0
2018-Mar-16 21:27N 29°20' W 094°35'0 0.0
2018-Mar-16 21:00N 29°20' W 094°35'0 0.0
2018-Mar-16 20:21N 29°20' W 094°35'0 0.0
2018-Mar-16 20:00N 29°20' W 094°35'0 0.0
2018-Mar-16 19:30N 29°20' W 094°35'0 0.0
2018-Mar-16 18:54N 29°20' W 094°35'0 0.0
2018-Mar-16 18:30N 29°20' W 094°35'0 0.1
2018-Mar-16 18:00N 29°20' W 094°35'  
Track history (hours):
 
Tides and Currents Weather Stations Pressure Air Temp Water Temp Dewpoint Dewpoint Depression Visibility Wind Speed Wind Dir Waves Ship Positions

Seaways Milos

Last reported at 2018-Mar-26 17:43 UTC. Time now 2018-May-27 01:31 UTC.
Position N 09°11' W 079°52'.
Warning: this ship's position is months out of date.

Length 183 m; draft 12 m.

Type: Tanker. MMSI: 538004376.

Date/timePositionNaut miles runAvg speedWind from/ knotsBaromVisibWave heightAir tempDewpointWater temp
2018-Mar-26 17:43N 09°11' W 079°52'6 0.8
2018-Mar-26 10:04N 09°16' W 079°55'0 2.3
2018-Mar-26 10:00N 09°16' W 079°55'0 0.4
2018-Mar-26 09:30N 09°16' W 079°55'0 0.3
2018-Mar-26 09:00N 09°16' W 079°55'0 0.3
2018-Mar-26 08:29N 09°17' W 079°55'0 0.5
2018-Mar-26 08:00N 09°17' W 079°55'1 2.8
2018-Mar-26 07:30N 09°18' W 079°55'3 6.1
2018-Mar-26 07:00N 09°21' W 079°55'3 5.7
2018-Mar-26 06:30N 09°24' W 079°55'4 8.6
2018-Mar-26 06:00N 09°28' W 079°53'1 1.3
2018-Mar-26 05:30N 09°29' W 079°54'1 1.2
2018-Mar-26 05:00N 09°29' W 079°54'3 4.6
2018-Mar-26 04:25N 09°32' W 079°55'1 2.4
2018-Mar-26 03:56N 09°32' W 079°56'0 0.3
2018-Mar-26 03:30N 09°32' W 079°56'0 0.4
2018-Mar-26 02:58N 09°32' W 079°56'0 0.2
2018-Mar-26 02:30N 09°32' W 079°56'0 0.3
2018-Mar-26 01:59N 09°33' W 079°56'1 2.8
2018-Mar-26 01:30N 09°32' W 079°55'1 1.6
2018-Mar-26 00:52N 09°32' W 079°54'1 1.0
2018-Mar-26 00:16N 09°31' W 079°54'1 2.8
2018-Mar-25 23:55N 09°31' W 079°54'3 8.0
2018-Mar-25 23:30N 09°34' W 079°52'  
2018-Mar-20 23:57N 28°53' W 094°25'611.8
2018-Mar-20 23:28N 28°59' W 094°25'611.9
2018-Mar-20 22:56N 29°05' W 094°25'611.7
2018-Mar-20 22:28N 29°10' W 094°29'611.8
2018-Mar-20 21:59N 29°14' W 094°33'611.1
2018-Mar-20 21:26N 29°19' W 094°38'511.1
2018-Mar-20 20:58N 29°21' W 094°43'5 9.8
2018-Mar-20 20:30N 29°22' W 094°48'610.1
2018-Mar-20 19:57N 29°27' W 094°51'5 9.8
2018-Mar-20 19:27N 29°32' W 094°54'4 9.6
2018-Mar-20 19:01N 29°35' W 094°56'5 9.2
2018-Mar-20 18:30N 29°40' W 094°58'4 7.7
2018-Mar-20 18:00N 29°43' W 095°01'  
2018-Mar-17 04:35N 29°44' W 095°01'0 0.3
2018-Mar-17 04:28N 29°44' W 095°01'2 3.7
2018-Mar-17 04:00N 29°42' W 095°01'510.0
2018-Mar-17 03:30N 29°38' W 094°58'611.2
2018-Mar-17 03:00N 29°33' W 094°54'612.2
2018-Mar-17 02:30N 29°28' W 094°51'812.1
2018-Mar-17 01:48N 29°21' W 094°46'412.6
2018-Mar-17 01:28N 29°20' W 094°41'511.0
2018-Mar-17 01:00N 29°18' W 094°35'2 3.4
2018-Mar-17 00:30N 29°19' W 094°35'0 0.0
2018-Mar-16 23:57N 29°19' W 094°35'0 0.0
2018-Mar-16 23:30N 29°19' W 094°35'0 0.0
2018-Mar-16 23:00N 29°19' W 094°35'0 0.0
2018-Mar-16 22:27N 29°19' W 094°35'0 0.0
2018-Mar-16 21:57N 29°19' W 094°35'0 0.0
2018-Mar-16 21:27N 29°20' W 094°35'0 0.0
2018-Mar-16 21:00N 29°20' W 094°35'0 0.0
2018-Mar-16 20:21N 29°20' W 094°35'0 0.0
2018-Mar-16 20:00N 29°20' W 094°35'0 0.0
2018-Mar-16 19:30N 29°20' W 094°35'0 0.0
2018-Mar-16 18:54N 29°20' W 094°35'0 0.0
2018-Mar-16 18:30N 29°20' W 094°35'0 0.1
2018-Mar-16 18:00N 29°20' W 094°35'  

Dump ship's entire track history